sensor_id;sensor_type;location;lat;lon;timestamp;P1;durP1;ratioP1;P2;durP2;ratioP2
52494;SDS011;38405;53.212;5.660;2022-10-16T00:01:09;5.30;;;1.63;;
52494;SDS011;38405;53.212;5.660;2022-10-16T00:03:39;6.68;;;1.70;;
52494;SDS011;38405;53.212;5.660;2022-10-16T00:06:06;7.03;;;1.70;;
52494;SDS011;38405;53.212;5.660;2022-10-16T00:08:33;5.47;;;1.48;;
52494;SDS011;38405;53.212;5.660;2022-10-16T00:11:03;4.30;;;1.60;;
52494;SDS011;38405;53.212;5.660;2022-10-16T00:13:34;10.20;;;1.73;;
52494;SDS011;38405;53.212;5.660;2022-10-16T00:16:02;5.47;;;1.60;;
52494;SDS011;38405;53.212;5.660;2022-10-16T00:18:28;10.43;;;2.08;;
52494;SDS011;38405;53.212;5.660;2022-10-16T00:20:55;8.48;;;1.90;;
52494;SDS011;38405;53.212;5.660;2022-10-16T00:23:26;11.15;;;1.70;;
52494;SDS011;38405;53.212;5.660;2022-10-16T00:25:59;6.00;;;1.77;;
52494;SDS011;38405;53.212;5.660;2022-10-16T00:28:26;6.95;;;1.73;;
52494;SDS011;38405;53.212;5.660;2022-10-16T00:30:52;5.78;;;1.77;;
52494;SDS011;38405;53.212;5.660;2022-10-16T00:33:18;2.95;;;1.25;;
52494;SDS011;38405;53.212;5.660;2022-10-16T00:35:44;12.60;;;1.73;;
52494;SDS011;38405;53.212;5.660;2022-10-16T00:38:10;9.77;;;1.90;;
52494;SDS011;38405;53.212;5.660;2022-10-16T00:40:36;7.32;;;1.77;;
52494;SDS011;38405;53.212;5.660;2022-10-16T00:43:02;8.05;;;1.33;;
52494;SDS011;38405;53.212;5.660;2022-10-16T00:45:27;8.25;;;1.92;;
52494;SDS011;38405;53.212;5.660;2022-10-16T00:47:53;7.90;;;1.92;;
52494;SDS011;38405;53.212;5.660;2022-10-16T00:50:31;4.85;;;1.50;;
52494;SDS011;38405;53.212;5.660;2022-10-16T00:52:59;7.40;;;1.73;;
52494;SDS011;38405;53.212;5.660;2022-10-16T00:55:26;5.70;;;1.35;;
52494;SDS011;38405;53.212;5.660;2022-10-16T00:57:55;8.73;;;1.50;;
52494;SDS011;38405;53.212;5.660;2022-10-16T01:00:23;5.82;;;1.45;;
52494;SDS011;38405;53.212;5.660;2022-10-16T01:05:21;10.20;;;1.73;;
52494;SDS011;38405;53.212;5.660;2022-10-16T01:07:58;7.57;;;1.80;;
52494;SDS011;38405;53.212;5.660;2022-10-16T01:10:41;5.78;;;1.40;;
52494;SDS011;38405;53.212;5.660;2022-10-16T01:13:24;6.22;;;1.23;;
52494;SDS011;38405;53.212;5.660;2022-10-16T01:15:56;6.53;;;1.60;;
52494;SDS011;38405;53.212;5.660;2022-10-16T01:18:39;2.10;;;1.10;;
52494;SDS011;38405;53.212;5.660;2022-10-16T01:21:12;7.85;;;1.42;;
52494;SDS011;38405;53.212;5.660;2022-10-16T01:24:33;8.32;;;1.60;;
52494;SDS011;38405;53.212;5.660;2022-10-16T01:26:50;5.03;;;1.42;;
52494;SDS011;38405;53.212;5.660;2022-10-16T01:32:28;7.47;;;1.67;;
52494;SDS011;38405;53.212;5.660;2022-10-16T01:35:00;5.10;;;1.27;;
52494;SDS011;38405;53.212;5.660;2022-10-16T01:40:20;6.47;;;1.33;;
52494;SDS011;38405;53.212;5.660;2022-10-16T01:42:56;5.25;;;1.60;;
52494;SDS011;38405;53.212;5.660;2022-10-16T01:45:28;6.38;;;1.60;;
52494;SDS011;38405;53.212;5.660;2022-10-16T01:47:56;3.53;;;1.50;;
52494;SDS011;38405;53.212;5.660;2022-10-16T01:50:25;5.38;;;1.30;;
52494;SDS011;38405;53.212;5.660;2022-10-16T01:52:52;4.28;;;1.48;;
52494;SDS011;38405;53.212;5.660;2022-10-16T01:55:26;5.18;;;1.50;;
52494;SDS011;38405;53.212;5.660;2022-10-16T01:57:56;5.80;;;1.60;;
52494;SDS011;38405;53.212;5.660;2022-10-16T02:00:24;5.63;;;1.60;;
52494;SDS011;38405;53.212;5.660;2022-10-16T02:02:53;5.28;;;1.63;;
52494;SDS011;38405;53.212;5.660;2022-10-16T02:07:59;7.97;;;2.10;;
52494;SDS011;38405;53.212;5.660;2022-10-16T02:10:25;5.40;;;1.60;;
52494;SDS011;38405;53.212;5.660;2022-10-16T02:13:03;3.55;;;1.33;;
52494;SDS011;38405;53.212;5.660;2022-10-16T02:15:49;11.10;;;1.80;;
52494;SDS011;38405;53.212;5.660;2022-10-16T02:18:15;3.95;;;1.38;;
52494;SDS011;38405;53.212;5.660;2022-10-16T02:20:57;5.75;;;1.80;;
52494;SDS011;38405;53.212;5.660;2022-10-16T02:26:13;6.82;;;1.98;;
52494;SDS011;38405;53.212;5.660;2022-10-16T02:28:45;7.55;;;1.80;;
52494;SDS011;38405;53.212;5.660;2022-10-16T02:31:18;4.28;;;1.40;;
52494;SDS011;38405;53.212;5.660;2022-10-16T02:33:52;9.00;;;1.88;;
52494;SDS011;38405;53.212;5.660;2022-10-16T02:36:22;3.10;;;1.67;;
52494;SDS011;38405;53.212;5.660;2022-10-16T02:38:48;13.35;;;2.15;;
52494;SDS011;38405;53.212;5.660;2022-10-16T02:41:14;3.53;;;1.77;;
52494;SDS011;38405;53.212;5.660;2022-10-16T02:43:40;3.83;;;1.90;;
52494;SDS011;38405;53.212;5.660;2022-10-16T02:46:06;4.00;;;2.00;;
52494;SDS011;38405;53.212;5.660;2022-10-16T02:48:32;5.60;;;2.15;;
52494;SDS011;38405;53.212;5.660;2022-10-16T02:50:57;5.35;;;2.20;;
52494;SDS011;38405;53.212;5.660;2022-10-16T02:53:23;5.68;;;2.28;;
52494;SDS011;38405;53.212;5.660;2022-10-16T02:55:48;5.45;;;2.42;;
52494;SDS011;38405;53.212;5.660;2022-10-16T02:58:14;7.25;;;2.30;;
52494;SDS011;38405;53.212;5.660;2022-10-16T03:00:40;6.22;;;2.65;;
52494;SDS011;38405;53.212;5.660;2022-10-16T03:03:05;8.00;;;2.83;;
52494;SDS011;38405;53.212;5.660;2022-10-16T03:05:31;5.10;;;2.78;;
52494;SDS011;38405;53.212;5.660;2022-10-16T03:07:57;5.07;;;2.67;;
52494;SDS011;38405;53.212;5.660;2022-10-16T03:10:25;5.45;;;2.40;;
52494;SDS011;38405;53.212;5.660;2022-10-16T03:12:50;7.75;;;2.72;;
52494;SDS011;38405;53.212;5.660;2022-10-16T03:15:16;5.13;;;2.85;;
52494;SDS011;38405;53.212;5.660;2022-10-16T03:17:42;3.28;;;2.20;;
52494;SDS011;38405;53.212;5.660;2022-10-16T03:20:08;8.35;;;2.25;;
52494;SDS011;38405;53.212;5.660;2022-10-16T03:22:34;4.85;;;2.42;;
52494;SDS011;38405;53.212;5.660;2022-10-16T03:24:59;6.65;;;2.53;;
52494;SDS011;38405;53.212;5.660;2022-10-16T03:27:25;5.97;;;2.08;;
52494;SDS011;38405;53.212;5.660;2022-10-16T03:29:51;10.25;;;2.25;;
52494;SDS011;38405;53.212;5.660;2022-10-16T03:32:16;6.47;;;2.00;;
52494;SDS011;38405;53.212;5.660;2022-10-16T03:34:43;4.40;;;1.88;;
52494;SDS011;38405;53.212;5.660;2022-10-16T03:37:08;7.13;;;2.50;;
52494;SDS011;38405;53.212;5.660;2022-10-16T03:39:34;7.88;;;2.38;;
52494;SDS011;38405;53.212;5.660;2022-10-16T03:42:00;12.20;;;2.10;;
52494;SDS011;38405;53.212;5.660;2022-10-16T03:44:25;7.90;;;1.98;;
52494;SDS011;38405;53.212;5.660;2022-10-16T03:46:51;3.70;;;1.85;;
52494;SDS011;38405;53.212;5.660;2022-10-16T03:49:16;3.92;;;1.90;;
52494;SDS011;38405;53.212;5.660;2022-10-16T03:51:42;4.93;;;1.67;;
52494;SDS011;38405;53.212;5.660;2022-10-16T03:54:08;3.85;;;1.55;;
52494;SDS011;38405;53.212;5.660;2022-10-16T03:56:34;3.85;;;1.70;;
52494;SDS011;38405;53.212;5.660;2022-10-16T03:59:00;6.38;;;1.73;;
52494;SDS011;38405;53.212;5.660;2022-10-16T04:01:26;4.97;;;1.80;;
52494;SDS011;38405;53.212;5.660;2022-10-16T04:03:51;8.98;;;2.03;;
52494;SDS011;38405;53.212;5.660;2022-10-16T04:06:17;5.72;;;1.92;;
52494;SDS011;38405;53.212;5.660;2022-10-16T04:08:43;7.35;;;1.90;;
52494;SDS011;38405;53.212;5.660;2022-10-16T04:11:09;5.72;;;1.90;;
52494;SDS011;38405;53.212;5.660;2022-10-16T04:13:34;5.03;;;1.95;;
52494;SDS011;38405;53.212;5.660;2022-10-16T04:16:00;5.97;;;1.50;;
52494;SDS011;38405;53.212;5.660;2022-10-16T04:18:25;6.95;;;1.95;;
52494;SDS011;38405;53.212;5.660;2022-10-16T04:20:52;9.02;;;2.17;;
52494;SDS011;38405;53.212;5.660;2022-10-16T04:23:18;4.10;;;1.70;;
52494;SDS011;38405;53.212;5.660;2022-10-16T04:25:44;8.15;;;2.00;;
52494;SDS011;38405;53.212;5.660;2022-10-16T04:28:09;8.10;;;1.77;;
52494;SDS011;38405;53.212;5.660;2022-10-16T04:30:37;6.38;;;1.90;;
52494;SDS011;38405;53.212;5.660;2022-10-16T04:33:04;3.53;;;1.50;;
52494;SDS011;38405;53.212;5.660;2022-10-16T04:35:29;5.53;;;1.85;;
52494;SDS011;38405;53.212;5.660;2022-10-16T04:37:57;7.97;;;1.90;;
52494;SDS011;38405;53.212;5.660;2022-10-16T04:40:23;6.82;;;1.90;;
52494;SDS011;38405;53.212;5.660;2022-10-16T04:42:49;5.57;;;1.55;;
52494;SDS011;38405;53.212;5.660;2022-10-16T04:45:14;6.03;;;1.77;;
52494;SDS011;38405;53.212;5.660;2022-10-16T04:47:40;3.33;;;1.85;;
52494;SDS011;38405;53.212;5.660;2022-10-16T04:50:06;5.13;;;1.83;;
52494;SDS011;38405;53.212;5.660;2022-10-16T04:52:32;5.65;;;1.70;;
52494;SDS011;38405;53.212;5.660;2022-10-16T04:54:58;6.03;;;1.85;;
52494;SDS011;38405;53.212;5.660;2022-10-16T04:57:27;10.63;;;1.45;;
52494;SDS011;38405;53.212;5.660;2022-10-16T04:59:53;4.43;;;1.90;;
52494;SDS011;38405;53.212;5.660;2022-10-16T05:02:19;4.20;;;1.73;;
52494;SDS011;38405;53.212;5.660;2022-10-16T05:04:44;3.35;;;1.40;;
52494;SDS011;38405;53.212;5.660;2022-10-16T05:07:10;6.95;;;1.42;;
52494;SDS011;38405;53.212;5.660;2022-10-16T05:09:36;4.47;;;1.40;;
52494;SDS011;38405;53.212;5.660;2022-10-16T05:12:02;6.15;;;1.83;;
52494;SDS011;38405;53.212;5.660;2022-10-16T05:14:28;4.85;;;1.20;;
52494;SDS011;38405;53.212;5.660;2022-10-16T05:16:54;7.55;;;1.60;;
52494;SDS011;38405;53.212;5.660;2022-10-16T05:19:20;5.55;;;1.50;;
52494;SDS011;38405;53.212;5.660;2022-10-16T05:21:45;6.82;;;1.65;;
52494;SDS011;38405;53.212;5.660;2022-10-16T05:24:11;5.30;;;1.85;;
52494;SDS011;38405;53.212;5.660;2022-10-16T05:26:37;6.97;;;2.00;;
52494;SDS011;38405;53.212;5.660;2022-10-16T05:29:03;4.18;;;1.45;;
52494;SDS011;38405;53.212;5.660;2022-10-16T05:31:28;7.00;;;1.70;;
52494;SDS011;38405;53.212;5.660;2022-10-16T05:34:00;7.03;;;2.10;;
52494;SDS011;38405;53.212;5.660;2022-10-16T05:36:26;5.88;;;2.25;;
52494;SDS011;38405;53.212;5.660;2022-10-16T05:38:52;6.45;;;2.08;;
52494;SDS011;38405;53.212;5.660;2022-10-16T05:41:18;8.10;;;2.58;;
52494;SDS011;38405;53.212;5.660;2022-10-16T05:43:46;6.78;;;2.50;;
52494;SDS011;38405;53.212;5.660;2022-10-16T05:46:13;6.95;;;2.63;;
52494;SDS011;38405;53.212;5.660;2022-10-16T05:48:39;3.60;;;2.47;;
52494;SDS011;38405;53.212;5.660;2022-10-16T05:51:08;8.80;;;2.30;;
52494;SDS011;38405;53.212;5.660;2022-10-16T05:53:36;5.35;;;2.40;;
52494;SDS011;38405;53.212;5.660;2022-10-16T05:56:04;7.35;;;2.50;;
52494;SDS011;38405;53.212;5.660;2022-10-16T05:58:31;4.50;;;2.50;;
52494;SDS011;38405;53.212;5.660;2022-10-16T06:01:00;10.43;;;2.60;;
52494;SDS011;38405;53.212;5.660;2022-10-16T06:03:30;9.30;;;2.17;;
52494;SDS011;38405;53.212;5.660;2022-10-16T06:05:55;8.70;;;2.47;;
52494;SDS011;38405;53.212;5.660;2022-10-16T06:08:22;9.85;;;2.40;;
52494;SDS011;38405;53.212;5.660;2022-10-16T06:10:49;8.30;;;2.35;;
52494;SDS011;38405;53.212;5.660;2022-10-16T06:13:24;9.55;;;2.83;;
52494;SDS011;38405;53.212;5.660;2022-10-16T06:15:50;6.03;;;2.08;;
52494;SDS011;38405;53.212;5.660;2022-10-16T06:18:16;7.05;;;2.28;;
52494;SDS011;38405;53.212;5.660;2022-10-16T06:20:41;7.90;;;2.50;;
52494;SDS011;38405;53.212;5.660;2022-10-16T06:23:07;7.88;;;2.75;;
52494;SDS011;38405;53.212;5.660;2022-10-16T06:25:32;7.25;;;2.15;;
52494;SDS011;38405;53.212;5.660;2022-10-16T06:27:58;6.47;;;2.33;;
52494;SDS011;38405;53.212;5.660;2022-10-16T06:30:24;9.48;;;2.30;;
52494;SDS011;38405;53.212;5.660;2022-10-16T06:32:49;11.38;;;2.47;;
52494;SDS011;38405;53.212;5.660;2022-10-16T06:35:15;12.95;;;2.50;;
52494;SDS011;38405;53.212;5.660;2022-10-16T06:37:40;12.82;;;2.55;;
52494;SDS011;38405;53.212;5.660;2022-10-16T06:40:06;7.35;;;2.22;;
52494;SDS011;38405;53.212;5.660;2022-10-16T06:42:32;8.27;;;2.08;;
52494;SDS011;38405;53.212;5.660;2022-10-16T06:44:57;13.27;;;2.80;;
52494;SDS011;38405;53.212;5.660;2022-10-16T06:47:23;7.38;;;2.30;;
52494;SDS011;38405;53.212;5.660;2022-10-16T06:49:49;11.77;;;2.20;;
52494;SDS011;38405;53.212;5.660;2022-10-16T06:52:14;7.75;;;1.73;;
52494;SDS011;38405;53.212;5.660;2022-10-16T06:54:40;11.68;;;2.00;;
52494;SDS011;38405;53.212;5.660;2022-10-16T06:57:05;14.43;;;2.10;;
52494;SDS011;38405;53.212;5.660;2022-10-16T06:59:31;5.07;;;1.70;;
52494;SDS011;38405;53.212;5.660;2022-10-16T07:01:57;7.15;;;1.75;;
52494;SDS011;38405;53.212;5.660;2022-10-16T07:04:22;11.23;;;2.60;;
52494;SDS011;38405;53.212;5.660;2022-10-16T07:06:48;4.30;;;1.80;;
52494;SDS011;38405;53.212;5.660;2022-10-16T07:09:13;5.93;;;1.80;;
52494;SDS011;38405;53.212;5.660;2022-10-16T07:11:39;5.65;;;1.80;;
52494;SDS011;38405;53.212;5.660;2022-10-16T07:14:12;5.80;;;1.83;;
52494;SDS011;38405;53.212;5.660;2022-10-16T07:16:43;7.57;;;2.40;;
52494;SDS011;38405;53.212;5.660;2022-10-16T07:19:09;8.32;;;2.28;;
52494;SDS011;38405;53.212;5.660;2022-10-16T07:21:37;6.38;;;2.53;;
52494;SDS011;38405;53.212;5.660;2022-10-16T07:24:04;8.45;;;2.13;;
52494;SDS011;38405;53.212;5.660;2022-10-16T07:26:33;3.42;;;1.80;;
52494;SDS011;38405;53.212;5.660;2022-10-16T07:29:00;5.30;;;2.28;;
52494;SDS011;38405;53.212;5.660;2022-10-16T07:31:25;5.85;;;2.10;;
52494;SDS011;38405;53.212;5.660;2022-10-16T07:33:52;6.63;;;2.38;;
52494;SDS011;38405;53.212;5.660;2022-10-16T07:36:18;9.52;;;2.05;;
52494;SDS011;38405;53.212;5.660;2022-10-16T07:38:45;6.18;;;2.17;;
52494;SDS011;38405;53.212;5.660;2022-10-16T07:41:12;5.88;;;2.17;;
52494;SDS011;38405;53.212;5.660;2022-10-16T07:43:39;5.18;;;2.17;;
52494;SDS011;38405;53.212;5.660;2022-10-16T07:46:06;8.50;;;2.30;;
52494;SDS011;38405;53.212;5.660;2022-10-16T07:48:32;5.05;;;2.33;;
52494;SDS011;38405;53.212;5.660;2022-10-16T07:50:59;4.75;;;2.05;;
52494;SDS011;38405;53.212;5.660;2022-10-16T07:53:26;7.40;;;1.95;;
52494;SDS011;38405;53.212;5.660;2022-10-16T07:55:52;9.57;;;2.60;;
52494;SDS011;38405;53.212;5.660;2022-10-16T07:58:23;8.88;;;2.53;;
52494;SDS011;38405;53.212;5.660;2022-10-16T08:00:49;13.10;;;2.50;;
52494;SDS011;38405;53.212;5.660;2022-10-16T08:03:14;10.00;;;2.28;;
52494;SDS011;38405;53.212;5.660;2022-10-16T08:05:40;9.70;;;2.40;;
52494;SDS011;38405;53.212;5.660;2022-10-16T08:08:05;8.55;;;2.30;;
52494;SDS011;38405;53.212;5.660;2022-10-16T08:10:31;7.15;;;2.13;;
52494;SDS011;38405;53.212;5.660;2022-10-16T08:12:57;6.60;;;2.00;;
52494;SDS011;38405;53.212;5.660;2022-10-16T08:15:23;10.48;;;2.40;;
52494;SDS011;38405;53.212;5.660;2022-10-16T08:18:00;7.40;;;2.33;;
52494;SDS011;38405;53.212;5.660;2022-10-16T08:20:27;8.23;;;2.25;;
52494;SDS011;38405;53.212;5.660;2022-10-16T08:22:53;5.97;;;1.83;;
52494;SDS011;38405;53.212;5.660;2022-10-16T08:25:20;7.53;;;1.88;;
52494;SDS011;38405;53.212;5.660;2022-10-16T08:27:47;9.30;;;2.20;;
52494;SDS011;38405;53.212;5.660;2022-10-16T08:30:12;9.02;;;2.05;;
52494;SDS011;38405;53.212;5.660;2022-10-16T08:32:39;8.13;;;2.63;;
52494;SDS011;38405;53.212;5.660;2022-10-16T08:35:06;5.07;;;2.00;;
52494;SDS011;38405;53.212;5.660;2022-10-16T08:37:32;6.10;;;2.35;;
52494;SDS011;38405;53.212;5.660;2022-10-16T08:39:58;4.68;;;2.33;;
52494;SDS011;38405;53.212;5.660;2022-10-16T08:45:32;7.10;;;3.28;;
52494;SDS011;38405;53.212;5.660;2022-10-16T08:48:20;16.85;;;8.25;;
52494;SDS011;38405;53.212;5.660;2022-10-16T08:51:18;11.23;;;3.17;;
52494;SDS011;38405;53.212;5.660;2022-10-16T08:56:20;13.23;;;3.15;;
52494;SDS011;38405;53.212;5.660;2022-10-16T08:58:46;8.23;;;2.45;;
52494;SDS011;38405;53.212;5.660;2022-10-16T09:01:14;9.60;;;2.47;;
52494;SDS011;38405;53.212;5.660;2022-10-16T09:06:35;9.27;;;2.28;;
52494;SDS011;38405;53.212;5.660;2022-10-16T09:12:31;13.95;;;3.10;;
52494;SDS011;38405;53.212;5.660;2022-10-16T09:20:26;10.57;;;2.65;;
52494;SDS011;38405;53.212;5.660;2022-10-16T09:25:54;11.63;;;2.65;;
52494;SDS011;38405;53.212;5.660;2022-10-16T09:28:21;9.23;;;2.30;;
52494;SDS011;38405;53.212;5.660;2022-10-16T09:30:47;19.40;;;3.35;;
52494;SDS011;38405;53.212;5.660;2022-10-16T09:33:14;11.55;;;2.72;;
52494;SDS011;38405;53.212;5.660;2022-10-16T09:35:45;9.57;;;2.60;;
52494;SDS011;38405;53.212;5.660;2022-10-16T09:38:33;13.75;;;2.80;;
52494;SDS011;38405;53.212;5.660;2022-10-16T09:41:11;12.57;;;2.58;;
52494;SDS011;38405;53.212;5.660;2022-10-16T09:43:48;16.08;;;3.25;;
52494;SDS011;38405;53.212;5.660;2022-10-16T09:46:28;11.90;;;2.88;;
52494;SDS011;38405;53.212;5.660;2022-10-16T09:49:00;15.65;;;3.13;;
52494;SDS011;38405;53.212;5.660;2022-10-16T09:51:34;19.08;;;3.45;;
52494;SDS011;38405;53.212;5.660;2022-10-16T09:56:38;14.57;;;3.22;;
52494;SDS011;38405;53.212;5.660;2022-10-16T09:59:11;12.15;;;2.95;;
52494;SDS011;38405;53.212;5.660;2022-10-16T10:01:43;14.60;;;3.00;;
52494;SDS011;38405;53.212;5.660;2022-10-16T10:04:14;16.05;;;2.50;;
52494;SDS011;38405;53.212;5.660;2022-10-16T10:06:41;14.60;;;2.80;;
52494;SDS011;38405;53.212;5.660;2022-10-16T10:11:56;14.73;;;2.90;;
52494;SDS011;38405;53.212;5.660;2022-10-16T10:30:48;13.50;;;2.92;;
52494;SDS011;38405;53.212;5.660;2022-10-16T10:38:41;12.15;;;3.15;;
52494;SDS011;38405;53.212;5.660;2022-10-16T10:41:21;15.90;;;2.78;;
52494;SDS011;38405;53.212;5.660;2022-10-16T10:46:36;14.38;;;2.90;;
52494;SDS011;38405;53.212;5.660;2022-10-16T10:54:36;18.60;;;2.78;;
52494;SDS011;38405;53.212;5.660;2022-10-16T10:57:10;24.55;;;3.00;;
52494;SDS011;38405;53.212;5.660;2022-10-16T11:07:57;10.18;;;2.22;;
52494;SDS011;38405;53.212;5.660;2022-10-16T11:13:24;10.18;;;2.42;;
52494;SDS011;38405;53.212;5.660;2022-10-16T11:16:00;10.15;;;2.67;;
52494;SDS011;38405;53.212;5.660;2022-10-16T11:18:48;9.40;;;2.22;;
52494;SDS011;38405;53.212;5.660;2022-10-16T11:21:20;21.23;;;3.10;;
52494;SDS011;38405;53.212;5.660;2022-10-16T11:23:58;13.50;;;2.70;;
52494;SDS011;38405;53.212;5.660;2022-10-16T11:26:34;12.43;;;2.33;;
52494;SDS011;38405;53.212;5.660;2022-10-16T11:29:04;11.70;;;2.58;;
52494;SDS011;38405;53.212;5.660;2022-10-16T11:31:39;14.65;;;2.78;;
52494;SDS011;38405;53.212;5.660;2022-10-16T11:34:28;10.43;;;2.17;;
52494;SDS011;38405;53.212;5.660;2022-10-16T11:40:25;19.80;;;3.22;;
52494;SDS011;38405;53.212;5.660;2022-10-16T11:43:06;18.88;;;2.83;;
52494;SDS011;38405;53.212;5.660;2022-10-16T11:45:42;13.25;;;2.75;;
52494;SDS011;38405;53.212;5.660;2022-10-16T11:50:54;18.00;;;2.45;;
52494;SDS011;38405;53.212;5.660;2022-10-16T11:53:50;14.60;;;3.05;;
52494;SDS011;38405;53.212;5.660;2022-10-16T11:56:25;11.10;;;2.40;;
52494;SDS011;38405;53.212;5.660;2022-10-16T11:59:05;13.20;;;2.10;;
52494;SDS011;38405;53.212;5.660;2022-10-16T12:01:47;9.40;;;2.28;;
52494;SDS011;38405;53.212;5.660;2022-10-16T12:04:22;11.00;;;2.10;;
52494;SDS011;38405;53.212;5.660;2022-10-16T12:07:21;17.13;;;2.92;;
52494;SDS011;38405;53.212;5.660;2022-10-16T12:09:50;13.65;;;2.72;;
52494;SDS011;38405;53.212;5.660;2022-10-16T12:12:26;9.55;;;1.98;;
52494;SDS011;38405;53.212;5.660;2022-10-16T12:15:03;11.48;;;2.40;;
52494;SDS011;38405;53.212;5.660;2022-10-16T12:17:43;11.93;;;2.65;;
52494;SDS011;38405;53.212;5.660;2022-10-16T12:20:28;11.57;;;2.40;;
52494;SDS011;38405;53.212;5.660;2022-10-16T12:22:57;13.77;;;2.63;;
52494;SDS011;38405;53.212;5.660;2022-10-16T12:25:29;19.58;;;3.22;;
52494;SDS011;38405;53.212;5.660;2022-10-16T12:28:01;13.85;;;3.20;;
52494;SDS011;38405;53.212;5.660;2022-10-16T12:30:32;10.48;;;2.40;;
52494;SDS011;38405;53.212;5.660;2022-10-16T12:33:04;13.18;;;2.45;;
52494;SDS011;38405;53.212;5.660;2022-10-16T12:35:45;14.90;;;2.92;;
52494;SDS011;38405;53.212;5.660;2022-10-16T12:40:43;12.63;;;2.50;;
52494;SDS011;38405;53.212;5.660;2022-10-16T12:43:13;11.10;;;2.05;;
52494;SDS011;38405;53.212;5.660;2022-10-16T12:46:01;15.90;;;2.58;;
52494;SDS011;38405;53.212;5.660;2022-10-16T12:48:46;9.70;;;2.20;;
52494;SDS011;38405;53.212;5.660;2022-10-16T12:54:00;17.55;;;2.40;;
52494;SDS011;38405;53.212;5.660;2022-10-16T12:56:33;14.07;;;2.75;;
52494;SDS011;38405;53.212;5.660;2022-10-16T13:05:20;15.10;;;2.67;;
52494;SDS011;38405;53.212;5.660;2022-10-16T13:08:13;11.95;;;2.30;;
52494;SDS011;38405;53.212;5.660;2022-10-16T13:19:37;12.83;;;2.50;;
52494;SDS011;38405;53.212;5.660;2022-10-16T13:22:15;18.00;;;2.75;;
52494;SDS011;38405;53.212;5.660;2022-10-16T13:27:44;10.57;;;2.67;;
52494;SDS011;38405;53.212;5.660;2022-10-16T13:30:20;13.10;;;2.88;;
52494;SDS011;38405;53.212;5.660;2022-10-16T13:32:50;14.70;;;3.25;;
52494;SDS011;38405;53.212;5.660;2022-10-16T13:35:27;14.43;;;2.92;;
52494;SDS011;38405;53.212;5.660;2022-10-16T13:40:36;15.38;;;2.78;;
52494;SDS011;38405;53.212;5.660;2022-10-16T13:43:01;15.25;;;2.60;;
52494;SDS011;38405;53.212;5.660;2022-10-16T13:45:27;21.55;;;2.92;;
52494;SDS011;38405;53.212;5.660;2022-10-16T13:48:06;16.40;;;2.97;;
52494;SDS011;38405;53.212;5.660;2022-10-16T13:50:37;14.70;;;3.17;;
52494;SDS011;38405;53.212;5.660;2022-10-16T13:53:13;13.88;;;2.55;;
52494;SDS011;38405;53.212;5.660;2022-10-16T13:55:39;14.52;;;2.60;;
52494;SDS011;38405;53.212;5.660;2022-10-16T13:58:10;13.93;;;3.08;;
52494;SDS011;38405;53.212;5.660;2022-10-16T14:00:38;15.60;;;2.78;;
52494;SDS011;38405;53.212;5.660;2022-10-16T14:03:07;16.70;;;2.97;;
52494;SDS011;38405;53.212;5.660;2022-10-16T14:08:33;13.32;;;2.30;;
52494;SDS011;38405;53.212;5.660;2022-10-16T14:10:59;12.85;;;2.35;;
52494;SDS011;38405;53.212;5.660;2022-10-16T14:13:39;21.98;;;3.15;;
52494;SDS011;38405;53.212;5.660;2022-10-16T14:16:09;10.43;;;2.17;;
52494;SDS011;38405;53.212;5.660;2022-10-16T14:18:41;8.53;;;1.63;;
52494;SDS011;38405;53.212;5.660;2022-10-16T14:21:14;10.13;;;2.05;;
52494;SDS011;38405;53.212;5.660;2022-10-16T14:23:41;15.35;;;2.15;;
52494;SDS011;38405;53.212;5.660;2022-10-16T14:28:33;12.48;;;2.53;;
52494;SDS011;38405;53.212;5.660;2022-10-16T14:31:00;9.93;;;2.03;;
52494;SDS011;38405;53.212;5.660;2022-10-16T14:36:05;15.98;;;2.97;;
52494;SDS011;38405;53.212;5.660;2022-10-16T14:38:35;10.48;;;2.63;;
52494;SDS011;38405;53.212;5.660;2022-10-16T14:41:03;17.00;;;2.97;;
52494;SDS011;38405;53.212;5.660;2022-10-16T14:45:59;14.05;;;2.33;;
52494;SDS011;38405;53.212;5.660;2022-10-16T14:48:27;14.25;;;2.30;;
52494;SDS011;38405;53.212;5.660;2022-10-16T14:50:53;12.77;;;2.60;;
52494;SDS011;38405;53.212;5.660;2022-10-16T14:53:18;11.95;;;3.35;;
52494;SDS011;38405;53.212;5.660;2022-10-16T14:55:44;13.30;;;2.65;;
52494;SDS011;38405;53.212;5.660;2022-10-16T14:58:20;13.68;;;2.60;;
52494;SDS011;38405;53.212;5.660;2022-10-16T15:00:48;18.52;;;2.60;;
52494;SDS011;38405;53.212;5.660;2022-10-16T15:03:14;15.40;;;2.40;;
52494;SDS011;38405;53.212;5.660;2022-10-16T15:05:43;18.40;;;3.40;;
52494;SDS011;38405;53.212;5.660;2022-10-16T15:08:08;13.98;;;2.38;;
52494;SDS011;38405;53.212;5.660;2022-10-16T15:10:38;12.25;;;2.33;;
52494;SDS011;38405;53.212;5.660;2022-10-16T15:13:06;12.57;;;2.72;;
52494;SDS011;38405;53.212;5.660;2022-10-16T15:15:37;12.68;;;2.70;;
52494;SDS011;38405;53.212;5.660;2022-10-16T15:18:06;12.93;;;2.90;;
52494;SDS011;38405;53.212;5.660;2022-10-16T15:20:33;13.65;;;2.70;;
52494;SDS011;38405;53.212;5.660;2022-10-16T15:23:04;11.98;;;2.70;;
52494;SDS011;38405;53.212;5.660;2022-10-16T15:25:44;17.80;;;3.67;;
52494;SDS011;38405;53.212;5.660;2022-10-16T15:28:20;18.35;;;4.30;;
52494;SDS011;38405;53.212;5.660;2022-10-16T15:30:48;17.58;;;3.70;;
52494;SDS011;38405;53.212;5.660;2022-10-16T15:33:16;17.02;;;3.40;;
52494;SDS011;38405;53.212;5.660;2022-10-16T15:35:47;17.02;;;4.05;;
52494;SDS011;38405;53.212;5.660;2022-10-16T15:38:14;14.13;;;2.80;;
52494;SDS011;38405;53.212;5.660;2022-10-16T15:40:40;19.10;;;2.88;;
52494;SDS011;38405;53.212;5.660;2022-10-16T15:43:06;20.63;;;3.15;;
52494;SDS011;38405;53.212;5.660;2022-10-16T15:45:32;19.88;;;3.05;;
52494;SDS011;38405;53.212;5.660;2022-10-16T15:47:58;21.30;;;3.40;;
52494;SDS011;38405;53.212;5.660;2022-10-16T15:50:24;18.73;;;3.38;;
52494;SDS011;38405;53.212;5.660;2022-10-16T15:52:50;12.98;;;3.05;;
52494;SDS011;38405;53.212;5.660;2022-10-16T15:55:16;21.23;;;3.45;;
52494;SDS011;38405;53.212;5.660;2022-10-16T15:57:43;11.18;;;2.40;;
52494;SDS011;38405;53.212;5.660;2022-10-16T16:00:13;18.70;;;3.30;;
52494;SDS011;38405;53.212;5.660;2022-10-16T16:02:41;16.88;;;2.92;;
52494;SDS011;38405;53.212;5.660;2022-10-16T16:05:08;17.05;;;3.33;;
52494;SDS011;38405;53.212;5.660;2022-10-16T16:07:36;22.45;;;3.33;;
52494;SDS011;38405;53.212;5.660;2022-10-16T16:10:03;19.23;;;2.90;;
52494;SDS011;38405;53.212;5.660;2022-10-16T16:12:30;16.55;;;2.80;;
52494;SDS011;38405;53.212;5.660;2022-10-16T16:14:55;19.77;;;2.60;;
52494;SDS011;38405;53.212;5.660;2022-10-16T16:17:21;14.77;;;2.72;;
52494;SDS011;38405;53.212;5.660;2022-10-16T16:19:47;16.73;;;3.13;;
52494;SDS011;38405;53.212;5.660;2022-10-16T16:22:12;18.15;;;2.95;;
52494;SDS011;38405;53.212;5.660;2022-10-16T16:24:38;13.43;;;2.80;;
52494;SDS011;38405;53.212;5.660;2022-10-16T16:27:04;24.58;;;3.90;;
52494;SDS011;38405;53.212;5.660;2022-10-16T16:29:29;21.77;;;3.20;;
52494;SDS011;38405;53.212;5.660;2022-10-16T16:31:55;19.27;;;2.97;;
52494;SDS011;38405;53.212;5.660;2022-10-16T16:34:28;26.23;;;3.45;;
52494;SDS011;38405;53.212;5.660;2022-10-16T16:36:54;17.00;;;3.33;;
52494;SDS011;38405;53.212;5.660;2022-10-16T16:39:20;19.02;;;3.50;;
52494;SDS011;38405;53.212;5.660;2022-10-16T16:41:47;21.63;;;3.95;;
52494;SDS011;38405;53.212;5.660;2022-10-16T16:44:13;18.52;;;3.83;;
52494;SDS011;38405;53.212;5.660;2022-10-16T16:46:41;18.63;;;3.50;;
52494;SDS011;38405;53.212;5.660;2022-10-16T16:49:09;29.67;;;3.67;;
52494;SDS011;38405;53.212;5.660;2022-10-16T16:51:39;20.33;;;4.00;;
52494;SDS011;38405;53.212;5.660;2022-10-16T16:54:05;16.70;;;3.13;;
52494;SDS011;38405;53.212;5.660;2022-10-16T16:56:32;16.60;;;3.25;;